Airfield :
LOGIN :

Register | Disclaimer

   EN    FR    IT 

 










Legend :    VFR   Marginal VFR   IFR   Intensive IFR   Very Intensive IFR
Visi :
Ceiling :
>= 8 km
>= 3000ft
5 to 8 km
1000 to 3000 ft
1500m to 5 km
500 to 1000 ft
800 to 1500m
200 to 500 ft
< 800m
< 200 ft
Symbols :   Thunderstorms  Fog  Heavy snow  Heavy precipitations  Wind > 20 kt
SIGMETs :     Misc.  Thunderstorms  Icing  Turbulence  Mountain Waves  Volcanic Ashes







- Airport Elevation : 479 ft
- IATA code : DOL
- Download approach charts


LFRG - Deauville

CURRENT METAR :
  • 181700Z AUTO 08007KT 050V110 CAVOK 21/08 Q1019 NOSIG

EXPIRED METARs :
  • 181630Z AUTO 08009KT 030V130 CAVOK 22/08 Q1019 NOSIG
  • 181600Z AUTO 07007KT 020V110 CAVOK 22/09 Q1019 NOSIG
  • 181530Z AUTO 09007KT 050V150 CAVOK 22/09 Q1019 NOSIG
  • 181500Z AUTO 08009KT 050V130 CAVOK 22/08 Q1019 NOSIG
  • 181430Z AUTO 10007KT 050V170 CAVOK 22/08 Q1019 NOSIG

TAF TAF LFRG
Valid from the 18 at 15:00 until the 19 at 00:00 UTC


181400Z 1815/1824 10008KT CAVOK
ATIS : +33 2 31 65 65 36
No reported NOTAMs for that airfield.



MET'MAP, your aeronautical weather chart ! - Copyright ORBIFLY December 2007 - Disclaimer

ORBIFLY MET'MAP TEAM :

Programming & Development : Alexandra Zaïnal
Concept & Development : Baudouin d'Aumeries
Co-Development & Prog : Marc-Olivier Méhu
Technical & hardware support : Manuel Goepfert

Contact : metmap@orbifly.com




SOURCES & CREDITS :

   NOAA